Terminal Aerodrome Forecast
Issued by NWS

Home | Current Version | Previous Version | Text Only | Print | Product List | Glossary On
Versions: 1 2 3 4 5 6 7 8 9 10 11 12 13 14 15 16 17 18 19 20 21 22 23 24 25 26 27 28 29 30 31 32 33 34 35 36 37 38 39 40 41 42 43
000
FTUS42 KGSP 051249 AAB
TAFHKY
TAF AMD
KHKY 051249Z 0513/0612 20004KT P6SM FEW010 BKN110
      TEMPO 0513/0514 3SM BR BKN007
     FM051700 19008KT P6SM VCSH BKN050
     FM052100 19010KT P6SM -SHRA VCTS BKN050CB
     FM060300 20006KT P6SM BKN110=

USA.gov is the U.S. government's official web portal to all federal, state and local government web resources and services.